Timeline UpdatesTrip UpdatesNews PostsPvt PostsTravel TipsAdmin PostsConv PostsFollowed PostsChat RequestsBlog PostsPNR Posts

Disclaimer
Search
 
 
Sat Aug 30, 2014 21:43:40 ISTHomeTrainsΣChainsAtlasPNRForumGalleryNewsFAQTripsMembersLoginFeedback
No Recent News for this Train
Other Trains in the News **new
Latest...
For the very reason, the Division says that the Kilakkarai-Bangalore City passenger (Train 56513) will be delayed for 130 minutes at Vridhachalam and leave at 12.15 p.m. on January 5.
Sun Jan 05, 2014 (11:18AM)
⇐ Return Journey: Train# 56514

56513/Karaikal Bangalore City Fast Passenger (UnReserved)

Nov 03 2013 (6:46PM)
Change Departure Station:
Change Arrival Station:
Post a Train Travel TipPost a Train Travel Tip **new
Post a Comment/Question/Picture/VideoPost a Comment/Question/Picture/Video
Inaugural Run
Mon Jul 02, 2012
Pantry/Catering
✕ NO Pantry Car
✕ NO Catering
Loco/Rake Reversals
VRI/Vriddhachalam Junction (4); TVR/Thiruvarur Junction (5); CUPJ/Cuddalore Port Junction (4);
RSA - Rake Sharing
NIL
Rake/Coach Composition
14 UR coaches and 2 SLR's
Loco
KJM WDM-2 / WDG-3A / WDM3A , GOC-WDP-3A
News    PNR    Forum    Time-Table    Availability    Fare Chart    Map    Arr/Dep History    Trips    Gallery    ΣChains    X/O    Timeline    
Travel Time: 0h 24m    0 halts    Distance: 4 km    Avg Speed: 10 km/hr
Type: Passenger
Zone: SWR/South Western
Departs @ 18:36 (Avg 19m late)
Platform# 1
SMTWTFS
Bangalore Cantt./BNC 
Arrives @ 19:00 (Avg 7m late)
Platform# 2
SMTWTFS
Bangalore City Junction/SBC 

0 halts. 0 intermediate Stations between Bangalore Cantt. and Bangalore City Junction

Show ALL intermediate Stations  Show Old Time-Table

#CodeStation NameX/OArrivesAvgDepartsAvgHaltPFDay#KmSpeedElevZoneAddress
1KIKKaraikal (3)  -03:40+111-565.3374mSRKaraikal, Puducherry
2NCRNagore (3)  03:58+404:00+42m11-554.2435mSRPIN 611002, Tamil Nadu
3NGTNagappattinam Junction (3)  04:10+804:15+85m11-547.1479mSRNagapattinam 611001, Tamil Nadu
4TVRThiruvarur Junction (5)04:45+704:55+1310m31-523.74913mSRPIN 610001, Tamil Nadu
5NNMNannilam (2)X  05:13+1305:15+182m11-509.15811mSRSannanallur PIN 610105, Tamil Nadu
6PEMPeralam Junction (3)  05:24+2105:25+241m11-500.41712mSRPeralam 609405, Tamil Nadu
7MVMayiladuturai Junction (5)  06:20-106:30+410m11-485.03017mSRPIN 609003, Tamil Nadu
8ANPAnandatandavapuram (2)  06:43+306:44+41m11-478.46511mSRRailady Street, Tamil Nadu
9VDLVaithisvaran Koil (2)  06:51+406:52+51m11-470.94312mSRPIN 609117, Tamil Nadu
10SYSirkazhi (2)  07:00+907:01+91m11-465.1566mSRPIN 609110, Tamil Nadu
11CLNKollidam (2)O  07:12+607:13+61m11-454.8329mSRKollidam, Tamil Nadu
12VMPVallampadugai (1)  07:17-07:18-1m11-452.62810mSRVallampadugai, Tamil Nadu
13CDMChidambaram (3)X  07:28+507:30+42m11-447.9586mSRChidambaram, Tamil Nadu
14CUPJCuddalore Port Junction (4)08:10+208:20+1210m11-409.4792mSRCuddalore Township, Tamil Nadu
15KJPDKurinjipadi  08:39+2108:40+211m--1-384.33420mSRKurinjippadi, Tamil Nadu
16VLUVadalur  08:49+2108:50+211m--1-379.25544mSRVadalur, Tamil Nadu
17NVLNeyveli  08:59+2209:00+221m--1-371.04536mSRSH 10, Tamil Nadu
18UMGUttangal Mangalam  09:09+2109:10+211m--1-364.31942mSRState Highway 10, Tamil Nadu
19VRIVriddhachalam Junction (4)09:50+110:00+910m11-351.95845mSRVriddhachalam ph.no. 04143-263767, Tamil Nadu
20MKSPMukhasa Parur  10:23+310:24+51m--1-329.66470mSRMukhasa Parur ph.no. 04143-204465, Tamil Nadu
21KKTIKuttakudi  10:34-10:35-1m--1-318.91896mSRKuttakudi, Tamil Nadu
22PRVPukkirivari  10:54+610:55+81m--1-313.36099mSRPukkirivari ph.no. 04151-238388, Tamil Nadu
23SRVTSiruvattur  11:01-11:02-1m--1-307.424107mSRSiruvattur, Tamil Nadu
24CHSMChinna Salem (3)X  11:19+311:20+201m--1-300.455138mSRChinnasalem ph.no.04151-236251, Tamil Nadu
25MLYRMelnariyapanur  11:27-11:28-1m--1-294.062153mSRSalem - Ulundurpet Rd, Tamil Nadu
26TVSTalaivasal  11:35-11:36-1m--1-286.763169mSRTalaivasal, Tamil Nadu
27ATUAttur (3)  11:53+1811:55+182m--1-269.068230mSRAttur ph.no. 04282-240783, Tamil Nadu
28PDKMPedanayakanpalayam  12:05-12:06-1m--1-257.730262mSRPethanaickenpalayam, Tamil Nadu
29ETPEttapur Road (2)  12:14+1712:15+171m--1-253.763280mSREttapur Road ph.no. 04282-221888, Tamil Nadu
30VGEValappadi G Halt (1)  12:22-12:23-1m11-246.382305mSRVazhapadi, Tamil Nadu
31MPLIMinnampalli  12:34+2012:35+201m--1-231.339341mSRMinnampalli ph.no. 0427-2482102, Tamil Nadu
32APNAyodhyapattanam (1)  12:41-12:42-1m11-227.443321mSRSalem, Tamil Nadu
33SXTSalem Town (2)  12:53+1812:55+192m--1-219.533285mSRSalem, Tamil Nadu
34SAMTSalem MarketX  12:59+2113:00+211m--1-217.412274mSRSalem, Tamil Nadu
35SASalem Junction (6)  13:20+1013:25+115m41-213.337283mSRSalem, Tamil Nadu
36OMLOmalur Junction (2)  13:43+1313:45+132m--1-202.327278mSROmalur ph.no. 04290-220245, Tamil Nadu
37KVLRKaruvalli  14:11+1914:12+191m--1-190.663333mSWRSalem district, Tamil Nadu
38TPPToppur  14:24+2214:25+221m--1-177.954358mSWRDharmapuri, Tamil Nadu
39MPCMuttampatti (1)  14:38-14:39-1m11-166.256432mSWRDharmapuri, Tamil Nadu
40SZVSivadi  14:48+2914:49+291m--1-157.946502mSWRDharmapuri, Tamil Nadu
41DPJDharmapuri (3)  15:03+2815:08+255m--1-147.266467mSWRDharmapuri, Tamil Nadu
42PCVPalakkodu (1)  15:28+2715:29+271m11-125.359503mSWRDharmapuri, Tamil Nadu
43MZUMarandahalli (2)  15:42+3015:43+301m21-112.446579mSWRDharmapuri, Tamil Nadu
44RYCRayakkottai (2)  16:07+2816:08+281m--1-94.0-724mSWRHosur- Dharmapuri Highway, Tamil Nadu
45PRNTPeriyanaga Thunai (1)  16:14+4016:15+401m11-78.136787mSWRAttibele-Rayakottai Raod, Tamil Nadu
46KMLMKelamangalam  16:30+3616:31+371m--1-69.050804mSWRKrishnagiri, Tamil Nadu
47HSRAHosur (3)  16:48+3416:50+362m11-54.945895mSWRHosur, Tamil Nadu
48AEKAnekal Road (2)X  17:09+3517:10+361m--1-40.554911mSWRBengaluru-562106, Karnataka
49HLEHeelalige (2)X  17:21+3817:22+391m--1-30.754885mSWRBengaluru, Karnataka
50CRLMKarmelaram (2)  17:34+3717:35+381m--1-19.819901mSWRBangalore 560035, Karnataka
51BLRRBelandur Road (1)  17:45-17:47-2m11-16.619876mSWRBengaluru, Karnataka
52BYPLBaiyyappanahalli (2)X  18:19+2018:20+211m11-6.447913mSWRBengaluru-560038, Karnataka
53BNCEBangalore East (2)X  18:25+018:26+01m11-2.518915mSWRBangalore, Karnataka
54BNC»Bangalore Cantt. (4)»  18:34+1918:36+192m110.011929mSWRBengaluru-560052, Karnataka
55SBC•Bangalore City Junction (10)•  19:00+7-214.5-903mSWRBengaluru-560023, Karnataka
Scroll to Top
Scroll to Bottom